createdAt,value
2017-09-14T00:00:47.254Z,60.22
2017-09-14T00:01:46.954Z,60.41
2017-09-14T00:02:47.293Z,60.41
2017-09-14T00:03:53.260Z,60.5
2017-09-14T00:04:47.013Z,60.7
2017-09-14T00:05:47.032Z,60.5
2017-09-14T00:06:47.052Z,60.5
2017-09-14T00:07:47.081Z,60.7
2017-09-14T00:08:47.095Z,60.12
2017-09-14T00:09:47.439Z,60.19
2017-09-14T00:10:47.459Z,60.7
2017-09-14T00:11:47.481Z,60.28
2017-09-14T00:12:47.499Z,60.41
2017-09-14T00:13:47.192Z,60.41
2017-09-14T00:14:47.543Z,60.41
2017-09-14T00:15:47.237Z,60.12
2017-09-14T00:16:47.257Z,60.38
2017-09-14T00:17:47.609Z,60.67
2017-09-14T00:18:47.622Z,60.47
2017-09-14T00:19:47.643Z,60.96
2017-09-14T00:20:47.339Z,60.86
2017-09-14T00:21:47.683Z,60.76
2017-09-14T00:22:47.381Z,60.76
2017-09-14T00:23:47.401Z,60.57
2017-09-14T00:24:47.421Z,60.47
2017-09-14T00:25:47.441Z,60.76
2017-09-14T00:26:47.463Z,60.76
2017-09-14T00:27:47.804Z,60.76
2017-09-14T00:28:47.503Z,61.05
2017-09-14T00:29:47.847Z,61.15
2017-09-14T00:30:47.543Z,60.67
2017-09-14T00:31:47.889Z,60.86
2017-09-14T00:32:47.585Z,61.05
2017-09-14T00:33:47.931Z,60.96
2017-09-14T00:34:47.949Z,60.86
2017-09-14T00:35:47.972Z,60.57
2017-09-14T00:36:47.665Z,60.86
2017-09-14T00:37:48.014Z,60.96
2017-09-14T00:38:48.029Z,60.96
2017-09-14T00:39:47.729Z,61.05
2017-09-14T00:40:48.079Z,61.05
2017-09-14T00:41:47.769Z,61.05
2017-09-14T00:42:47.789Z,60.86
2017-09-14T00:43:48.136Z,61.05
2017-09-14T00:44:48.154Z,61.15
2017-09-14T00:45:48.177Z,61.34
2017-09-14T00:46:47.870Z,61.43
2017-09-14T00:47:48.217Z,60.96
2017-09-14T00:48:48.233Z,61.15
2017-09-14T00:49:48.254Z,61.24
2017-09-14T00:50:47.951Z,61.34
2017-09-14T00:51:47.971Z,61.91
2017-09-14T00:52:48.326Z,62.1
2017-09-14T00:53:48.335Z,61.72
2017-09-14T00:54:48.359Z,62.1
2017-09-14T00:55:48.054Z,62.2
2017-09-14T00:56:48.399Z,62.3
2017-09-14T00:57:48.416Z,62.3
2017-09-14T00:58:48.440Z,62.49
2017-09-14T00:59:48.457Z,62.39
2017-09-14T01:00:48.154Z,62.59
2017-09-14T01:01:48.174Z,62.01
2017-09-14T01:02:48.524Z,62.3
2017-09-14T01:03:48.616Z,62.49
2017-09-14T01:04:48.237Z,62.49
2017-09-14T01:05:48.579Z,62.96
2017-09-14T01:06:48.605Z,62.39
2017-09-14T01:07:48.623Z,63.06
2017-09-14T01:08:48.642Z,62.77
2017-09-14T01:09:48.660Z,62.68
2017-09-14T01:10:48.357Z,62.87
2017-09-14T01:11:48.780Z,62.87
2017-09-14T01:12:48.719Z,62.77
2017-09-14T01:13:48.416Z,62.77
2017-09-14T01:14:48.761Z,62.96
2017-09-14T01:15:48.781Z,63.35
2017-09-14T01:16:48.800Z,63.16
2017-09-14T01:17:48.832Z,62.96
2017-09-14T01:18:48.519Z,63.26
2017-09-14T01:19:48.538Z,63.16
2017-09-14T01:20:48.879Z,63.16
2017-09-14T01:21:48.579Z,63.64
2017-09-14T01:22:48.922Z,63.35
2017-09-14T01:23:48.618Z,63.45
2017-09-14T01:24:48.639Z,63.73
2017-09-14T01:25:48.981Z,63.7
2017-09-14T01:26:49.041Z,63.6
2017-09-14T01:27:49.025Z,63.32
2017-09-14T01:28:48.741Z,64.18
2017-09-14T01:29:49.066Z,63.89
2017-09-14T01:30:48.761Z,63.8
2017-09-14T01:31:49.101Z,63.8
2017-09-14T01:32:48.800Z,63.8
2017-09-14T01:33:49.140Z,63.8
2017-09-14T01:34:49.161Z,63.51
2017-09-14T01:35:49.182Z,63.7
2017-09-14T01:36:49.212Z,63.7
2017-09-14T01:37:49.223Z,63.99
2017-09-14T01:38:48.920Z,63.7
2017-09-14T01:39:49.263Z,63.89
2017-09-14T01:40:48.960Z,63.51
2017-09-14T01:41:49.302Z,63.89
2017-09-14T01:42:49.323Z,63.89
2017-09-14T01:43:49.021Z,63.7
2017-09-14T01:44:49.038Z,64.28
2017-09-14T01:45:49.387Z,64.18
2017-09-14T01:46:49.403Z,63.51
2017-09-14T01:47:49.100Z,63.7
2017-09-14T01:48:49.120Z,63.89
2017-09-14T01:49:49.139Z,63.99
2017-09-14T01:50:49.488Z,63.99
2017-09-14T01:51:49.181Z,63.8
2017-09-14T01:52:49.202Z,63.99
2017-09-14T01:53:49.757Z,63.89
2017-09-14T01:54:49.240Z,63.89
2017-09-14T01:55:49.583Z,64.37
2017-09-14T01:56:49.282Z,64.37
2017-09-14T01:57:49.624Z,64.37
2017-09-14T01:58:49.649Z,64.56
2017-09-14T01:59:49.340Z,64.56
2017-09-14T02:00:49.361Z,64.76
2017-09-14T02:01:49.705Z,64.66
2017-09-14T02:02:49.723Z,64.37
2017-09-14T02:03:49.745Z,64.37
2017-09-14T02:04:49.456Z,64.47
2017-09-14T02:05:49.562Z,64.47
2017-09-14T02:06:49.502Z,64.47
2017-09-14T02:07:49.504Z,64.18
2017-09-14T02:08:49.521Z,64.28
2017-09-14T02:09:49.541Z,64.37
2017-09-14T02:10:49.562Z,64.37
2017-09-14T02:11:49.581Z,64.47
2017-09-14T02:12:49.925Z,64.47
2017-09-14T02:13:49.947Z,64.37
2017-09-14T02:14:49.646Z,64.37
2017-09-14T02:15:49.989Z,64.47
2017-09-14T02:16:50.004Z,64.37
2017-09-14T02:17:49.699Z,64.28
2017-09-14T02:18:50.042Z,64.28
2017-09-14T02:19:49.749Z,64.37
2017-09-14T02:20:50.087Z,64.56
2017-09-14T02:21:49.780Z,64.37
2017-09-14T02:22:50.127Z,64.28
2017-09-14T02:23:49.821Z,64.47
2017-09-14T02:24:50.164Z,64.37
2017-09-14T02:25:49.858Z,64.18
2017-09-14T02:26:50.205Z,64.66
2017-09-14T02:27:50.224Z,64.72
2017-09-14T02:28:50.243Z,64.76
2017-09-14T02:29:50.261Z,64.76
2017-09-14T02:30:50.283Z,65.01
2017-09-14T02:31:50.305Z,65.05
2017-09-14T02:32:50.321Z,64.47
2017-09-14T02:33:50.347Z,64.37
2017-09-14T02:34:50.039Z,64.66
2017-09-14T02:35:50.395Z,64.53
2017-09-14T02:36:50.400Z,64.63
2017-09-14T02:37:50.420Z,64.25
2017-09-14T02:38:50.440Z,64.47
2017-09-14T02:39:50.471Z,64.34
2017-09-14T02:40:50.482Z,65.05
2017-09-14T02:41:50.526Z,64.66
2017-09-14T02:42:50.524Z,64.85
2017-09-14T02:43:50.549Z,64.82
2017-09-14T02:44:50.237Z,65.05
2017-09-14T02:45:50.587Z,64.82
2017-09-14T02:46:50.276Z,65.23
2017-09-14T02:47:50.619Z,64.95
2017-09-14T02:48:50.640Z,65.14
2017-09-14T02:49:50.662Z,64.85
2017-09-14T02:50:50.692Z,64.72
2017-09-14T02:51:50.698Z,64.76
2017-09-14T02:52:50.721Z,65.05
2017-09-14T02:53:50.743Z,65.01
2017-09-14T02:54:50.759Z,64.72
2017-09-14T02:55:50.780Z,64.82
2017-09-14T02:56:50.801Z,64.72
2017-09-14T02:57:50.820Z,64.92
2017-09-14T02:58:50.838Z,64.72
2017-09-14T02:59:50.861Z,64.72
2017-09-14T03:00:50.878Z,64.72
2017-09-14T03:01:50.571Z,65.2
2017-09-14T03:02:50.589Z,64.53
2017-09-14T03:03:50.610Z,65.58
2017-09-14T03:04:50.953Z,65.49
2017-09-14T03:05:50.979Z,65.68
2017-09-14T03:06:50.668Z,64.92
2017-09-14T03:07:50.687Z,64.92
2017-09-14T03:08:50.706Z,65.88
2017-09-14T03:09:50.767Z,65.68
2017-09-14T03:10:51.067Z,65.01
2017-09-14T03:11:51.098Z,65.78
2017-09-14T03:12:50.786Z,65.78
2017-09-14T03:13:51.130Z,64.92
2017-09-14T03:14:51.155Z,65.78
2017-09-14T03:15:51.168Z,64.92
2017-09-14T03:16:51.285Z,65.2
2017-09-14T03:17:51.335Z,65.49
2017-09-14T03:18:51.230Z,65.68
2017-09-14T03:19:51.246Z,65.11
2017-09-14T03:20:51.266Z,64.82
2017-09-14T03:21:50.961Z,65.49
2017-09-14T03:22:51.305Z,65.39
2017-09-14T03:23:51.326Z,65.39
2017-09-14T03:24:51.342Z,65.58
2017-09-14T03:25:51.365Z,65.58
2017-09-14T03:26:51.382Z,65.2
2017-09-14T03:27:51.407Z,65.2
2017-09-14T03:28:51.428Z,65.39
2017-09-14T03:29:51.446Z,65.39
2017-09-14T03:30:51.462Z,65.49
2017-09-14T03:31:51.485Z,65.3
2017-09-14T03:32:51.182Z,65.39
2017-09-14T03:33:51.525Z,65.3
2017-09-14T03:34:51.317Z,65.88
2017-09-14T03:35:51.562Z,65.68
2017-09-14T03:36:51.259Z,65.49
2017-09-14T03:37:51.279Z,65.97
2017-09-14T03:38:51.632Z,65.3
2017-09-14T03:39:51.639Z,65.88
2017-09-14T03:40:51.660Z,65.68
2017-09-14T03:41:51.689Z,66.06
2017-09-14T03:42:51.378Z,65.88
2017-09-14T03:43:51.720Z,65.88
2017-09-14T03:44:51.418Z,65.78
2017-09-14T03:45:51.757Z,66.06
2017-09-14T03:46:51.786Z,65.68
2017-09-14T03:47:51.802Z,65.68
2017-09-14T03:48:51.816Z,65.78
2017-09-14T03:49:51.838Z,65.78
2017-09-14T03:50:51.856Z,65.88
2017-09-14T03:51:51.878Z,66.06
2017-09-14T03:52:51.896Z,65.97
2017-09-14T03:53:51.913Z,65.78
2017-09-14T03:54:51.933Z,65.88
2017-09-14T03:55:51.633Z,65.78
2017-09-14T03:56:51.973Z,65.68
2017-09-14T03:57:51.994Z,66.16
2017-09-14T03:58:52.017Z,66.16
2017-09-14T03:59:51.710Z,65.97
2017-09-14T04:00:52.057Z,66.64
2017-09-14T04:01:52.072Z,66.45
2017-09-14T04:02:52.094Z,66.74
2017-09-14T04:03:52.111Z,66.54
2017-09-14T04:04:51.808Z,66.54
2017-09-14T04:05:52.149Z,66.35
2017-09-14T04:06:51.851Z,66.35
2017-09-14T04:07:52.190Z,66.35
2017-09-14T04:08:52.209Z,66.45
2017-09-14T04:09:51.911Z,66.74
2017-09-14T04:10:52.249Z,66.93
2017-09-14T04:11:51.948Z,66.83
2017-09-14T04:12:51.966Z,66.74
2017-09-14T04:13:51.986Z,67.21
2017-09-14T04:14:52.330Z,66.83
2017-09-14T04:15:52.346Z,66.83
2017-09-14T04:16:52.372Z,66.54
2017-09-14T04:17:52.392Z,66.64
2017-09-14T04:18:52.406Z,66.83
2017-09-14T04:19:52.427Z,66.83
2017-09-14T04:20:52.444Z,66.83
2017-09-14T04:21:52.209Z,66.74
2017-09-14T04:22:52.489Z,67.41
2017-09-14T04:23:52.502Z,67.5
2017-09-14T04:24:52.201Z,67.02
2017-09-14T04:25:52.221Z,66.83
2017-09-14T04:26:52.564Z,67.11
2017-09-14T04:27:52.260Z,67.02
2017-09-14T04:28:52.604Z,66.83
2017-09-14T04:29:52.298Z,66.83
2017-09-14T04:30:52.645Z,66.64
2017-09-14T04:31:52.339Z,67.11
2017-09-14T04:32:52.680Z,67.21
2017-09-14T04:33:52.377Z,67.21
2017-09-14T04:34:52.717Z,67.21
2017-09-14T04:35:52.746Z,67.11
2017-09-14T04:36:52.437Z,67.21
2017-09-14T04:37:52.779Z,66.89
2017-09-14T04:38:52.799Z,67.5
2017-09-14T04:39:52.818Z,67.41
2017-09-14T04:40:52.513Z,66.93
2017-09-14T04:41:52.854Z,67.31
2017-09-14T04:42:52.874Z,67.41
2017-09-14T04:43:52.900Z,67.69
2017-09-14T04:44:52.590Z,67.21
2017-09-14T04:45:52.932Z,67.31
2017-09-14T04:46:52.953Z,67.41
2017-09-14T04:47:52.649Z,67.37
2017-09-14T04:48:53.120Z,67.5
2017-09-14T04:49:53.011Z,66.93
2017-09-14T04:50:52.708Z,67.11
2017-09-14T04:51:53.046Z,67.37
2017-09-14T04:52:53.073Z,66.99
2017-09-14T04:53:53.090Z,67.6
2017-09-14T04:54:52.788Z,66.93
2017-09-14T04:55:53.130Z,66.99
2017-09-14T04:56:53.156Z,66.99
2017-09-14T04:57:53.166Z,66.89
2017-09-14T04:58:53.184Z,67.11
2017-09-14T04:59:53.205Z,67.47
2017-09-14T05:00:52.902Z,66.99
2017-09-14T05:01:53.245Z,67.08
2017-09-14T05:02:53.268Z,67.08
2017-09-14T05:03:53.288Z,67.08
2017-09-14T05:04:52.983Z,67.37
2017-09-14T05:05:53.324Z,67.56
2017-09-14T05:06:53.340Z,67.18
2017-09-14T05:07:53.039Z,67.37
2017-09-14T05:08:53.060Z,67.18
2017-09-14T05:09:53.400Z,67.94
2017-09-14T05:10:53.424Z,68.42
2017-09-14T05:11:53.443Z,68.33
2017-09-14T05:12:53.138Z,67.27
2017-09-14T05:13:53.163Z,68.23
2017-09-14T05:14:53.175Z,67.18
2017-09-14T05:15:53.519Z,67.66
2017-09-14T05:16:53.213Z,68.13
2017-09-14T05:17:53.232Z,67.76
2017-09-14T05:18:53.682Z,67.94
2017-09-14T05:19:53.684Z,67.47
2017-09-14T05:20:53.291Z,68.23
2017-09-14T05:21:53.707Z,68.13
2017-09-14T05:22:53.704Z,67.94
2017-09-14T05:23:53.714Z,67.76
2017-09-14T05:24:53.371Z,67.94
2017-09-14T05:25:53.712Z,68.23
2017-09-14T05:26:53.830Z,67.76
2017-09-14T05:27:53.889Z,67.37
2017-09-14T05:28:53.861Z,67.18
2017-09-14T05:29:53.467Z,68.42
2017-09-14T05:30:53.485Z,68.42
2017-09-14T05:31:53.886Z,67.47
2017-09-14T05:32:53.894Z,68.42
2017-09-14T05:33:53.892Z,68.33
2017-09-14T05:34:53.890Z,67.27
2017-09-14T05:35:53.905Z,67.66
2017-09-14T05:36:53.925Z,67.94
2017-09-14T05:37:53.944Z,67.94
2017-09-14T05:38:53.965Z,67.27
2017-09-14T05:39:53.982Z,67.27
2017-09-14T05:40:54.001Z,67.27
2017-09-14T05:41:54.018Z,67.27
2017-09-14T05:42:53.720Z,67.27
2017-09-14T05:43:53.743Z,67.27
2017-09-14T05:44:54.079Z,66.99
2017-09-14T05:45:53.909Z,67.18
2017-09-14T05:46:53.797Z,67.47
2017-09-14T05:47:53.816Z,67.56
2017-09-14T05:48:53.834Z,67.47
2017-09-14T05:49:53.855Z,67.37
2017-09-14T05:50:53.872Z,67.66
2017-09-14T05:51:54.216Z,67.66
2017-09-14T05:52:54.233Z,67.47
2017-09-14T05:53:54.256Z,68.33
2017-09-14T05:54:54.274Z,67.56
2017-09-14T05:55:53.969Z,67.94
2017-09-14T05:56:54.313Z,67.66
2017-09-14T05:57:54.330Z,67.56
2017-09-14T05:58:54.028Z,68.13
2017-09-14T05:59:54.048Z,67.27
2017-09-14T06:00:54.389Z,67.66
2017-09-14T06:01:54.087Z,67.47
2017-09-14T06:02:54.430Z,68.23
2017-09-14T06:03:54.126Z,67.66
2017-09-14T06:04:54.465Z,67.47
2017-09-14T06:05:54.166Z,67.66
2017-09-14T06:06:54.706Z,67.66
2017-09-14T06:07:54.644Z,67.08
2017-09-14T06:08:54.222Z,67.18
2017-09-14T06:09:54.563Z,66.99
2017-09-14T06:10:54.668Z,66.89
2017-09-14T06:11:54.282Z,67.37
2017-09-14T06:12:54.676Z,67.56
2017-09-14T06:13:54.674Z,67.41
2017-09-14T06:14:54.673Z,67.37
2017-09-14T06:15:54.358Z,67.69
2017-09-14T06:16:54.375Z,67.27
2017-09-14T06:17:54.719Z,66.8
2017-09-14T06:18:54.415Z,67.66
2017-09-14T06:19:54.436Z,67.02
2017-09-14T06:20:54.451Z,67.37
2017-09-14T06:21:54.793Z,67.31
2017-09-14T06:22:54.817Z,67.08
2017-09-14T06:23:54.519Z,67.47
2017-09-14T06:24:54.856Z,67.31
2017-09-14T06:25:54.549Z,67.5
2017-09-14T06:26:54.569Z,67.11
2017-09-14T06:27:54.677Z,67.56
2017-09-14T06:28:54.608Z,67.41
2017-09-14T06:29:54.953Z,67.31
2017-09-14T06:30:54.648Z,67.41
2017-09-14T06:31:54.666Z,67.47
2017-09-14T06:32:55.014Z,67.11
2017-09-14T06:33:55.026Z,67.02
2017-09-14T06:34:55.044Z,67.6
2017-09-14T06:35:55.065Z,67.41
2017-09-14T06:36:55.085Z,67.41
2017-09-14T06:37:55.104Z,67.11
2017-09-14T06:38:55.135Z,66.83
2017-09-14T06:39:55.144Z,67.21
2017-09-14T06:40:54.841Z,66.93
2017-09-14T06:41:54.954Z,67.31
2017-09-14T06:42:55.203Z,66.93
2017-09-14T06:43:54.899Z,67.11
2017-09-14T06:44:55.247Z,67.21
2017-09-14T06:45:55.258Z,67.21
2017-09-14T06:46:55.287Z,67.31
2017-09-14T06:47:55.297Z,66.83
2017-09-14T06:48:55.370Z,67.11
2017-09-14T06:49:55.343Z,66.74
2017-09-14T06:50:55.358Z,66.93
2017-09-14T06:51:55.154Z,66.83
2017-09-14T06:52:55.400Z,67.11
2017-09-14T06:53:55.095Z,66.93
2017-09-14T06:54:55.115Z,66.64
2017-09-14T06:55:55.132Z,66.83
2017-09-14T06:56:55.475Z,67.11
2017-09-14T06:57:55.172Z,67.31
2017-09-14T06:58:55.189Z,67.31
2017-09-14T06:59:55.536Z,66.74
2017-09-14T07:00:55.229Z,66.93
2017-09-14T07:01:55.250Z,66.83
2017-09-14T07:02:55.269Z,66.83
2017-09-14T07:03:55.613Z,66.83
2017-09-14T07:04:55.308Z,66.64
2017-09-14T07:05:55.651Z,66.93
2017-09-14T07:06:55.345Z,66.64
2017-09-14T07:07:55.366Z,66.64
2017-09-14T07:08:55.388Z,66.74
2017-09-14T07:09:55.730Z,66.54
2017-09-14T07:10:55.747Z,66.54
2017-09-14T07:11:55.768Z,66.64
2017-09-14T07:12:55.787Z,66.83
2017-09-14T07:13:55.803Z,66.83
2017-09-14T07:14:55.830Z,66.64
2017-09-14T07:15:55.842Z,66.54
2017-09-14T07:16:55.866Z,66.06
2017-09-14T07:17:55.884Z,65.88
2017-09-14T07:18:55.579Z,66.35
2017-09-14T07:19:55.930Z,65.97
2017-09-14T07:20:55.618Z,65.88
2017-09-14T07:21:55.960Z,66.35
2017-09-14T07:22:55.660Z,65.88
2017-09-14T07:23:55.998Z,65.78
2017-09-14T07:24:56.017Z,65.49
2017-09-14T07:25:56.038Z,65.49
2017-09-14T07:26:56.073Z,65.39
2017-09-14T07:27:56.077Z,65.39
2017-09-14T07:28:56.100Z,64.92
2017-09-14T07:29:56.117Z,64.82
2017-09-14T07:30:56.139Z,64.82
2017-09-14T07:31:56.157Z,64.85
2017-09-14T07:32:56.176Z,65.71
2017-09-14T07:33:56.194Z,64.76
2017-09-14T07:34:56.215Z,64.92
2017-09-14T07:35:56.236Z,64.76
2017-09-14T07:36:55.933Z,65.14
2017-09-14T07:37:55.951Z,65.14
2017-09-14T07:38:55.971Z,65.05
2017-09-14T07:39:56.318Z,64.85
2017-09-14T07:40:56.013Z,64.85
2017-09-14T07:41:56.353Z,64.37
2017-09-14T07:42:56.373Z,64.76
2017-09-14T07:43:56.392Z,64.47
2017-09-14T07:44:56.088Z,64.47
2017-09-14T07:45:56.430Z,64.66
2017-09-14T07:46:56.128Z,64.47
2017-09-14T07:47:56.470Z,64.76
2017-09-14T07:48:56.168Z,64.47
2017-09-14T07:49:56.511Z,64.56
2017-09-14T07:50:56.579Z,64.47
2017-09-14T07:51:56.551Z,63.89
2017-09-14T07:52:56.248Z,64.09
2017-09-14T07:53:56.590Z,63.99
2017-09-14T07:54:56.698Z,63.8
2017-09-14T07:55:56.633Z,63.89
2017-09-14T07:56:56.645Z,63.6
2017-09-14T07:57:56.668Z,63.89
2017-09-14T07:58:56.370Z,63.89
2017-09-14T07:59:56.508Z,63.8
2017-09-14T08:00:56.782Z,63.99
2017-09-14T08:01:56.780Z,63.6
2017-09-14T08:02:56.770Z,63.6
2017-09-14T08:03:56.908Z,63.32
2017-09-14T08:04:56.928Z,63.13
2017-09-14T08:05:56.596Z,63.42
2017-09-14T08:06:56.521Z,62.93
2017-09-14T08:07:56.864Z,63.13
2017-09-14T08:08:56.560Z,63.13
2017-09-14T08:09:56.904Z,63.22
2017-09-14T08:10:57.086Z,63.13
2017-09-14T08:11:57.083Z,62.93
2017-09-14T08:12:57.082Z,62.74
2017-09-14T08:13:57.216Z,62.65
2017-09-14T08:14:56.775Z,62.65
2017-09-14T08:15:56.698Z,62.17
2017-09-14T08:16:56.720Z,62.26
2017-09-14T08:17:57.063Z,62.26
2017-09-14T08:18:57.084Z,62.26
2017-09-14T08:19:56.781Z,61.98
2017-09-14T08:20:56.798Z,62.07
2017-09-14T08:21:57.139Z,62.07
2017-09-14T08:22:56.839Z,61.79
2017-09-14T08:23:56.860Z,62.26
2017-09-14T08:24:57.201Z,61.91
2017-09-14T08:25:57.224Z,62.01
2017-09-14T08:26:57.248Z,62.2
2017-09-14T08:27:57.257Z,62.2
2017-09-14T08:28:56.958Z,62.01
2017-09-14T08:29:56.976Z,62.3
2017-09-14T08:30:57.318Z,61.82
2017-09-14T08:31:57.340Z,62.01
2017-09-14T08:32:57.360Z,62.2
2017-09-14T08:33:57.055Z,62.3
2017-09-14T08:34:57.398Z,62.01
2017-09-14T08:35:57.420Z,61.82
2017-09-14T08:36:57.438Z,62.2
2017-09-14T08:37:57.460Z,62.01
2017-09-14T08:38:57.477Z,61.53
2017-09-14T08:39:57.174Z,61.53
2017-09-14T08:40:57.518Z,61.72
2017-09-14T08:41:57.214Z,61.34
2017-09-14T08:42:57.557Z,61.05
2017-09-14T08:43:57.576Z,61.34
2017-09-14T08:44:57.603Z,61.05
2017-09-14T08:45:57.294Z,60.57
2017-09-14T08:46:57.643Z,60.57
2017-09-14T08:47:57.342Z,60.96
2017-09-14T08:48:57.677Z,60.47
2017-09-14T08:49:57.700Z,60.86
2017-09-14T08:50:57.394Z,60.96
2017-09-14T08:51:57.419Z,60.96
2017-09-14T08:52:57.794Z,61.05
2017-09-14T08:53:58.000Z,60.47
2017-09-14T08:54:58.019Z,60.96
2017-09-14T08:55:57.821Z,60.86
2017-09-14T08:56:58.038Z,61.05
2017-09-14T08:57:57.536Z,61.53
2017-09-14T08:58:57.876Z,61.34
2017-09-14T08:59:57.898Z,61.53
2017-09-14T09:00:57.920Z,61.43
2017-09-14T09:01:57.615Z,61.34
2017-09-14T09:02:57.958Z,61.43
2017-09-14T09:03:57.985Z,61.43
2017-09-14T09:04:57.998Z,61.24
2017-09-14T09:05:58.014Z,61.34
2017-09-14T09:06:58.038Z,61.15
2017-09-14T09:07:58.064Z,61.43
2017-09-14T09:08:58.077Z,61.24
2017-09-14T09:09:57.775Z,61.05
2017-09-14T09:10:58.197Z,61.34
2017-09-14T09:11:57.963Z,61.24
2017-09-14T09:12:58.169Z,61.53
2017-09-14T09:13:58.176Z,61.05
2017-09-14T09:14:58.199Z,60.67
2017-09-14T09:15:58.281Z,60.96
2017-09-14T09:16:58.048Z,60.96
2017-09-14T09:17:57.938Z,60.86
2017-09-14T09:18:58.277Z,60.76
2017-09-14T09:19:57.978Z,60.76
2017-09-14T09:20:58.317Z,60.57
2017-09-14T09:21:58.337Z,60.76
2017-09-14T09:22:58.358Z,61.18
2017-09-14T09:23:58.380Z,60.57
2017-09-14T09:24:58.455Z,61.05
2017-09-14T09:25:58.097Z,60.57
2017-09-14T09:26:58.443Z,60.47
2017-09-14T09:27:58.457Z,60.57
2017-09-14T09:28:58.481Z,60.28
2017-09-14T09:29:58.498Z,60.47
2017-09-14T09:30:58.521Z,60.5
2017-09-14T09:31:58.216Z,60.38
2017-09-14T09:32:58.559Z,60.22
2017-09-14T09:33:58.582Z,60.19
2017-09-14T09:34:58.601Z,60.38
2017-09-14T09:35:58.620Z,60.47
2017-09-14T09:36:58.319Z,60.47
2017-09-14T09:37:58.335Z,60.47
2017-09-14T09:38:58.357Z,60.41
2017-09-14T09:39:58.707Z,60.5
2017-09-14T09:40:58.402Z,60.41
2017-09-14T09:41:58.419Z,60.28
2017-09-14T09:42:58.803Z,59.55
2017-09-14T09:43:58.786Z,59.64
2017-09-14T09:44:58.800Z,59.36
2017-09-14T09:45:58.498Z,59.45
2017-09-14T09:46:58.522Z,59.74
2017-09-14T09:47:58.866Z,59.36
2017-09-14T09:48:58.882Z,59.13
2017-09-14T09:49:58.903Z,59.16
2017-09-14T09:50:58.599Z,59.74
2017-09-14T09:51:58.709Z,59.64
2017-09-14T09:52:58.963Z,59.33
2017-09-14T09:53:58.740Z,59.13
2017-09-14T09:54:59.010Z,58.97
2017-09-14T09:55:59.024Z,59.26
2017-09-14T09:56:58.727Z,59.06
2017-09-14T09:57:59.072Z,59.52
2017-09-14T09:58:59.083Z,59.36
2017-09-14T09:59:59.138Z,59.61
2017-09-14T10:00:59.128Z,59.9
2017-09-14T10:01:59.144Z,59.8
2017-09-14T10:02:59.169Z,60.09
2017-09-14T10:03:59.184Z,60.57
2017-09-14T10:04:59.208Z,60.57
2017-09-14T10:05:59.228Z,60.76
2017-09-14T10:06:58.926Z,60.38
2017-09-14T10:07:58.943Z,61.15
2017-09-14T10:08:59.295Z,61.43
2017-09-14T10:09:58.983Z,60.86
2017-09-14T10:10:59.005Z,61.34
2017-09-14T10:11:59.348Z,61.05
2017-09-14T10:12:59.366Z,61.63
2017-09-14T10:13:59.389Z,61.34
2017-09-14T10:14:59.413Z,61.05
2017-09-14T10:15:59.428Z,61.43
2017-09-14T10:16:59.451Z,61.72
2017-09-14T10:17:59.470Z,61.72
2017-09-14T10:18:59.165Z,62.01
2017-09-14T10:19:59.507Z,62.2
2017-09-14T10:20:59.531Z,62.01
2017-09-14T10:21:59.228Z,62.1
2017-09-14T10:22:59.572Z,62.1
2017-09-14T10:23:59.588Z,61.72
2017-09-14T10:24:59.286Z,62.01
2017-09-14T10:25:59.627Z,61.82
2017-09-14T10:26:59.648Z,61.91
2017-09-14T10:27:59.347Z,61.91
2017-09-14T10:28:59.690Z,61.91
2017-09-14T10:29:59.389Z,61.63
2017-09-14T10:30:59.408Z,61.72
2017-09-14T10:31:59.751Z,61.72
2017-09-14T10:32:59.449Z,62.01
2017-09-14T10:33:59.467Z,62.1
2017-09-14T10:34:59.811Z,62.2
2017-09-14T10:35:59.509Z,61.91
2017-09-14T10:36:59.531Z,61.72
2017-09-14T10:37:59.548Z,61.63
2017-09-14T10:38:59.569Z,61.72
2017-09-14T10:39:59.913Z,62.2
2017-09-14T10:40:59.937Z,62.01
2017-09-14T10:42:00.162Z,61.91
2017-09-14T10:42:59.972Z,61.82
2017-09-14T10:43:59.996Z,61.91
2017-09-14T10:44:59.692Z,62.39
2017-09-14T10:45:59.711Z,61.91
2017-09-14T10:47:00.069Z,61.91
2017-09-14T10:48:00.074Z,62.2
2017-09-14T10:49:00.094Z,62.01
2017-09-14T10:50:00.117Z,62.3
2017-09-14T10:51:00.136Z,62.77
2017-09-14T10:51:59.834Z,63.26
2017-09-14T10:53:00.179Z,62.87
2017-09-14T10:54:00.207Z,62.87
2017-09-14T10:55:00.220Z,62.39
2017-09-14T10:55:59.917Z,63.06
2017-09-14T10:56:59.933Z,62.87
2017-09-14T10:57:59.956Z,62.96
2017-09-14T10:59:00.300Z,63.06
2017-09-14T11:00:00.329Z,63.26
2017-09-14T11:01:00.015Z,63.26
2017-09-14T11:02:00.490Z,63.45
2017-09-14T11:03:00.381Z,63.26
2017-09-14T11:04:00.415Z,63.06
2017-09-14T11:05:00.097Z,63.64
2017-09-14T11:06:00.437Z,63.64
2017-09-14T11:07:00.138Z,63.35
2017-09-14T11:08:00.479Z,63.45
2017-09-14T11:09:00.176Z,64.31
2017-09-14T11:10:00.527Z,64.02
2017-09-14T11:11:00.218Z,63.83
2017-09-14T11:12:00.380Z,63.83
2017-09-14T11:13:00.374Z,63.83
2017-09-14T11:14:00.375Z,64.02
2017-09-14T11:15:00.538Z,63.73
2017-09-14T11:16:00.420Z,63.89
2017-09-14T11:17:00.431Z,63.45
2017-09-14T11:18:00.368Z,63.89
2017-09-14T11:19:00.489Z,64.02
2017-09-14T11:20:00.722Z,63.8
2017-09-14T11:21:00.418Z,64.47
2017-09-14T11:22:00.763Z,64.18
2017-09-14T11:23:00.783Z,64.37
2017-09-14T11:24:00.481Z,64.37
2017-09-14T11:25:00.701Z,64.76
2017-09-14T11:26:00.844Z,64.56
2017-09-14T11:27:00.630Z,64.85
2017-09-14T11:28:00.561Z,63.99
2017-09-14T11:29:00.906Z,64.66
2017-09-14T11:30:00.924Z,64.76
2017-09-14T11:31:00.622Z,64.28
2017-09-14T11:32:00.971Z,64.66
2017-09-14T11:33:00.661Z,64.76
2017-09-14T11:34:01.037Z,64.37
2017-09-14T11:35:01.022Z,64.47
2017-09-14T11:36:00.720Z,65.14
2017-09-14T11:37:01.066Z,64.85
2017-09-14T11:38:00.774Z,64.85
2017-09-14T11:39:00.780Z,64.85
2017-09-14T11:40:01.125Z,64.66
2017-09-14T11:41:00.826Z,64.66
2017-09-14T11:42:01.163Z,64.76
2017-09-14T11:43:01.185Z,65.05
2017-09-14T11:44:00.887Z,64.85
2017-09-14T11:45:01.226Z,64.95
2017-09-14T11:46:01.246Z,64.66
2017-09-14T11:47:00.944Z,64.95
2017-09-14T11:48:00.963Z,65.08
2017-09-14T11:49:01.302Z,65.08
2017-09-14T11:50:01.003Z,65.17
2017-09-14T11:51:01.380Z,65.17
2017-09-14T11:52:01.368Z,64.89
2017-09-14T11:53:01.385Z,65.17
2017-09-14T11:54:01.082Z,65.08
2017-09-14T11:55:01.426Z,64.98
2017-09-14T11:56:01.122Z,64.89
2017-09-14T11:57:01.475Z,65.08
2017-09-14T11:58:01.170Z,64.89
2017-09-14T11:59:01.185Z,65.26
2017-09-14T12:00:01.208Z,64.59
2017-09-14T12:01:01.222Z,64.79
2017-09-14T12:02:01.243Z,64.89
2017-09-14T12:03:01.263Z,64.79
2017-09-14T12:04:01.604Z,64.79
2017-09-14T12:05:01.305Z,64.69
2017-09-14T12:06:01.332Z,65.08
2017-09-14T12:07:01.669Z,64.79
2017-09-14T12:08:01.687Z,64.59
2017-09-14T12:09:01.384Z,65.36
2017-09-14T12:10:01.403Z,65.36
2017-09-14T12:11:01.425Z,65.46
2017-09-14T12:12:01.448Z,65.46
2017-09-14T12:13:01.464Z,65.84
2017-09-14T12:14:01.493Z,65.08
2017-09-14T12:15:01.504Z,65.75
2017-09-14T12:16:01.525Z,65.08
2017-09-14T12:17:01.868Z,65.65
2017-09-14T12:18:01.892Z,65.17
2017-09-14T12:19:01.591Z,65.55
2017-09-14T12:20:01.606Z,65.46
2017-09-14T12:21:01.625Z,65.08
2017-09-14T12:22:01.974Z,65.46
2017-09-14T12:23:01.995Z,65.26
2017-09-14T12:24:01.687Z,64.98
2017-09-14T12:25:01.707Z,65.14
2017-09-14T12:26:02.055Z,65.33
2017-09-14T12:27:01.746Z,65.33
2017-09-14T12:28:02.092Z,65.23
2017-09-14T12:29:01.787Z,65.42
2017-09-14T12:30:01.807Z,65.52
2017-09-14T12:31:02.150Z,65.52
2017-09-14T12:32:01.848Z,65.23
2017-09-14T12:33:02.193Z,65.42
2017-09-14T12:34:02.210Z,65.23
2017-09-14T12:35:01.910Z,65.62
2017-09-14T12:36:01.926Z,65.23
2017-09-14T12:37:02.271Z,65.33
2017-09-14T12:38:01.974Z,65.52
2017-09-14T12:39:01.987Z,65.23
2017-09-14T12:40:02.009Z,65.33
2017-09-14T12:41:02.027Z,65.33
2017-09-14T12:42:02.052Z,65.33
2017-09-14T12:43:02.069Z,65.33
2017-09-14T12:44:02.416Z,65.23
2017-09-14T12:45:02.459Z,65.33
2017-09-14T12:46:02.576Z,65.33
2017-09-14T12:47:02.147Z,65.42
2017-09-14T12:48:02.491Z,64.95
2017-09-14T12:49:02.521Z,65.33
2017-09-14T12:50:02.535Z,65.33
2017-09-14T12:51:02.752Z,65.62
2017-09-14T12:52:02.771Z,65.62
2017-09-14T12:53:02.798Z,65.42
2017-09-14T12:54:02.288Z,65.33
2017-09-14T12:55:02.313Z,65.33